Diablo — WDG2170 — position and weather

sailwx.info

Track history (hours):
 
Tides and Currents Weather Stations Pressure Air Temp Water Temp Dewpoint Dewpoint Depression Visibility Wind Speed Wind Dir Waves Ship Positions

Diablo

Owner: Harley Marine Services, Inc, Seattle, WA. More information available from US FCC via Universal Licensing System and Coast Guard Vessel Documentation Center.

Last reported at 2017-Oct-20 03:32 UTC. Time now 2017-Oct-20 07:01 UTC.
Position N 29°45' W 095°06'.

Length 24 m; draft 2.6 m.

Type: Tug. MMSI: 367512880.

Date/timePositionNaut miles runAvg speedWind from/ knotsBaromVisibWave heightAir tempDewpointWater temp
2017-Oct-20 03:32N 29°45' W 095°06'0 3.7
2017-Oct-20 03:29N 29°45' W 095°06'3 6.8
2017-Oct-20 02:59N 29°45' W 095°10'3 7.0
2017-Oct-20 02:31N 29°44' W 095°14'3 5.6
2017-Oct-20 02:00N 29°44' W 095°17'1 1.1
2017-Oct-20 01:31N 29°45' W 095°17'0 0.0
2017-Oct-20 01:00N 29°45' W 095°17'0 0.0
2017-Oct-20 00:30N 29°45' W 095°17'0 0.0
2017-Oct-20 00:00N 29°45' W 095°17'0 0.0
2017-Oct-19 23:30N 29°45' W 095°17'0 0.0
2017-Oct-19 23:01N 29°45' W 095°17'0 0.0
2017-Oct-19 22:31N 29°45' W 095°17'0 0.0
2017-Oct-19 22:01N 29°45' W 095°17'0 0.0
2017-Oct-19 21:30N 29°45' W 095°17'0 0.0
2017-Oct-19 20:59N 29°45' W 095°17'0 0.6
2017-Oct-19 20:30N 29°45' W 095°17'3 5.3
2017-Oct-19 19:58N 29°43' W 095°15'4 7.2
2017-Oct-19 19:25N 29°45' W 095°11'2 0.4
2017-Oct-19 12:52N 29°44' W 095°08'2 2.7
2017-Oct-19 12:07N 29°45' W 095°06'0 0.0
2017-Oct-19 12:00N 29°45' W 095°06'0 0.0
2017-Oct-19 11:25N 29°45' W 095°06'0 0.0
2017-Oct-19 09:54N 29°45' W 095°06'0 0.0
2017-Oct-19 09:30N 29°45' W 095°06'0 0.0
2017-Oct-19 09:00N 29°45' W 095°06'0 0.0
2017-Oct-19 07:46N 29°45' W 095°06'0 0.0
2017-Oct-19 07:30N 29°45' W 095°06'0 0.0
2017-Oct-19 06:57N 29°45' W 095°06'0 0.0
2017-Oct-19 06:28N 29°45' W 095°06'0 0.0
2017-Oct-19 06:00N 29°45' W 095°06'0 0.0
2017-Oct-19 04:30N 29°45' W 095°06'0 0.0
2017-Oct-19 03:53N 29°45' W 095°06'0 0.0
2017-Oct-19 03:26N 29°45' W 095°06'0 0.0
2017-Oct-19 02:59N 29°45' W 095°06'0 0.0
2017-Oct-19 02:30N 29°45' W 095°06'0 0.0
2017-Oct-19 02:00N 29°45' W 095°06'0 0.0
2017-Oct-19 01:25N 29°45' W 095°06'0 0.0
2017-Oct-19 00:57N 29°45' W 095°06'0 0.0
2017-Oct-19 00:28N 29°45' W 095°06'0 0.0
2017-Oct-18 23:59N 29°45' W 095°06'0 0.0
2017-Oct-18 23:26N 29°45' W 095°06'0 0.0
2017-Oct-18 22:41N 29°45' W 095°06'2 0.5
2017-Oct-18 18:46N 29°46' W 095°05'0 0.0
2017-Oct-18 18:30N 29°46' W 095°05'0 0.0
2017-Oct-18 17:34N 29°46' W 095°05'0 0.0
2017-Oct-18 16:54N 29°46' W 095°05'1 1.2
2017-Oct-18 16:23N 29°46' W 095°05'0 0.1
2017-Oct-18 15:58N 29°46' W 095°05'2 4.0
2017-Oct-18 15:30N 29°44' W 095°06'3 6.6
2017-Oct-18 15:00N 29°45' W 095°10'5 5.3
2017-Oct-18 14:00N 29°43' W 095°16'0 0.6
2017-Oct-18 13:30N 29°44' W 095°16'0 0.0
2017-Oct-18 13:00N 29°44' W 095°16'0 0.0
2017-Oct-18 12:30N 29°44' W 095°16'0 0.0
2017-Oct-18 12:00N 29°44' W 095°16'0 0.0
2017-Oct-18 11:30N 29°44' W 095°16'0 0.0
2017-Oct-18 11:00N 29°44' W 095°16'0 0.0
2017-Oct-18 10:30N 29°44' W 095°16'0 0.0
2017-Oct-18 10:00N 29°44' W 095°16'0 0.0
2017-Oct-18 09:30N 29°44' W 095°16'0 0.0
2017-Oct-18 09:00N 29°44' W 095°16'0 0.0
2017-Oct-18 08:29N 29°44' W 095°16'0 0.0
2017-Oct-18 08:00N 29°44' W 095°16'1 1.5
2017-Oct-18 07:29N 29°44' W 095°15'3 5.8
2017-Oct-18 06:59N 29°44' W 095°12'3 6.4
2017-Oct-18 06:30N 29°44' W 095°09'3 5.2
2017-Oct-18 05:59N 29°45' W 095°06'0 0.9
2017-Oct-18 05:30N 29°46' W 095°06'0 0.0
2017-Oct-18 02:52N 29°46' W 095°06'0 0.0
2017-Oct-18 02:27N 29°46' W 095°06'0 0.0
2017-Oct-18 01:59N 29°46' W 095°06'0 0.1
2017-Oct-17 23:24N 29°46' W 095°06'1 0.1
2017-Oct-17 11:16N 29°47' W 095°06'0 0.1
2017-Oct-17 10:48N 29°47' W 095°06'1 2.4
2017-Oct-17 10:26N 29°46' W 095°05'3 6.4
2017-Oct-17 10:00N 29°44' W 095°03'0 0.0
2017-Oct-16 23:24N 29°44' W 095°03'3 4.0
2017-Oct-16 22:45N 29°45' W 095°06'2 7.5
2017-Oct-16 22:29N 29°44' W 095°08'2 4.5
2017-Oct-16 21:57N 29°45' W 095°11'0 0.0
2017-Oct-16 21:01N 29°45' W 095°11'0 0.0
2017-Oct-16 20:51N 29°45' W 095°11'0 0.0
2017-Oct-16 20:28N 29°45' W 095°11'0 0.0
2017-Oct-16 19:48N 29°45' W 095°11'0 0.0
2017-Oct-16 18:20N 29°45' W 095°11'0 0.0
2017-Oct-16 16:57N 29°45' W 095°11'0 0.0
2017-Oct-16 16:27N 29°45' W 095°11'0 0.7
2017-Oct-16 15:55N 29°45' W 095°10'3 6.8
2017-Oct-16 15:28N 29°44' W 095°07'2 5.5
2017-Oct-16 15:00N 29°45' W 095°04'7 6.7
2017-Oct-16 14:00N 29°41' W 094°59'4 7.1
2017-Oct-16 13:30N 29°37' W 094°57'4 8.0
2017-Oct-16 13:01N 29°34' W 094°55'  
2017-Oct-14 03:15N 29°29' W 094°51'2 7.0
2017-Oct-14 03:00N 29°30' W 094°52'4 7.1
2017-Oct-14 02:30N 29°33' W 094°55'4 7.1
2017-Oct-14 02:00N 29°36' W 094°57'13 0.7
2017-Oct-13 05:51N 29°47' W 095°06'0 0.3
2017-Oct-13 05:25N 29°46' W 095°06'0 0.0
2017-Oct-12 08:48N 29°47' W 095°06'0 0.5
2017-Oct-12 08:25N 29°46' W 095°06'1 3.3
2017-Oct-12 08:00N 29°45' W 095°06'4 6.7
2017-Oct-12 07:27N 29°45' W 095°10'2 3.8
2017-Oct-12 06:54N 29°44' W 095°12'0 0.0
2017-Oct-12 06:24N 29°44' W 095°12'0 0.0
2017-Oct-12 05:51N 29°44' W 095°12'0 0.0
2017-Oct-12 05:18N 29°44' W 095°12'0 0.0
2017-Oct-12 05:00N 29°44' W 095°12'0 0.0
2017-Oct-12 04:24N 29°44' W 095°12'0 0.0
2017-Oct-12 03:51N 29°44' W 095°12'0 0.0
2017-Oct-12 03:30N 29°44' W 095°12'0 0.0
2017-Oct-12 03:00N 29°44' W 095°12'0 0.0
2017-Oct-12 02:18N 29°44' W 095°12'0 0.0
2017-Oct-12 02:00N 29°44' W 095°12'0 0.1
2017-Oct-12 01:03N 29°44' W 095°12'0 0.2
2017-Oct-12 00:52N 29°44' W 095°12'1 3.9
2017-Oct-12 00:30N 29°44' W 095°14'0 0.1
2017-Oct-11 17:09N 29°43' W 095°13'3 5.7
2017-Oct-11 16:39N 29°45' W 095°10'4 0.2
2017-Oct-10 22:35N 29°46' W 095°06'0 3.9
2017-Oct-10 22:30N 29°46' W 095°05'1 2.7
2017-Oct-10 21:58N 29°45' W 095°06'1 0.1
2017-Oct-10 07:06N 29°46' W 095°06'0 4.2
2017-Oct-10 06:59N 29°46' W 095°05'3 5.9
2017-Oct-10 06:30N 29°44' W 095°08'  
Track history (hours):
 
Tides and Currents Weather Stations Pressure Air Temp Water Temp Dewpoint Dewpoint Depression Visibility Wind Speed Wind Dir Waves Ship Positions

Diablo

Owner: Harley Marine Services, Inc, Seattle, WA. More information available from US FCC via Universal Licensing System and Coast Guard Vessel Documentation Center.

Last reported at 2017-Oct-20 03:32 UTC. Time now 2017-Oct-20 07:01 UTC.
Position N 29°45' W 095°06'.

Length 24 m; draft 2.6 m.

Type: Tug. MMSI: 367512880.

Date/timePositionNaut miles runAvg speedWind from/ knotsBaromVisibWave heightAir tempDewpointWater temp
2017-Oct-20 03:32N 29°45' W 095°06'0 3.7
2017-Oct-20 03:29N 29°45' W 095°06'3 6.8
2017-Oct-20 02:59N 29°45' W 095°10'3 7.0
2017-Oct-20 02:31N 29°44' W 095°14'3 5.6
2017-Oct-20 02:00N 29°44' W 095°17'1 1.1
2017-Oct-20 01:31N 29°45' W 095°17'0 0.0
2017-Oct-20 01:00N 29°45' W 095°17'0 0.0
2017-Oct-20 00:30N 29°45' W 095°17'0 0.0
2017-Oct-20 00:00N 29°45' W 095°17'0 0.0
2017-Oct-19 23:30N 29°45' W 095°17'0 0.0
2017-Oct-19 23:01N 29°45' W 095°17'0 0.0
2017-Oct-19 22:31N 29°45' W 095°17'0 0.0
2017-Oct-19 22:01N 29°45' W 095°17'0 0.0
2017-Oct-19 21:30N 29°45' W 095°17'0 0.0
2017-Oct-19 20:59N 29°45' W 095°17'0 0.6
2017-Oct-19 20:30N 29°45' W 095°17'3 5.3
2017-Oct-19 19:58N 29°43' W 095°15'4 7.2
2017-Oct-19 19:25N 29°45' W 095°11'2 0.4
2017-Oct-19 12:52N 29°44' W 095°08'2 2.7
2017-Oct-19 12:07N 29°45' W 095°06'0 0.0
2017-Oct-19 12:00N 29°45' W 095°06'0 0.0
2017-Oct-19 11:25N 29°45' W 095°06'0 0.0
2017-Oct-19 09:54N 29°45' W 095°06'0 0.0
2017-Oct-19 09:30N 29°45' W 095°06'0 0.0
2017-Oct-19 09:00N 29°45' W 095°06'0 0.0
2017-Oct-19 07:46N 29°45' W 095°06'0 0.0
2017-Oct-19 07:30N 29°45' W 095°06'0 0.0
2017-Oct-19 06:57N 29°45' W 095°06'0 0.0
2017-Oct-19 06:28N 29°45' W 095°06'0 0.0
2017-Oct-19 06:00N 29°45' W 095°06'0 0.0
2017-Oct-19 04:30N 29°45' W 095°06'0 0.0
2017-Oct-19 03:53N 29°45' W 095°06'0 0.0
2017-Oct-19 03:26N 29°45' W 095°06'0 0.0
2017-Oct-19 02:59N 29°45' W 095°06'0 0.0
2017-Oct-19 02:30N 29°45' W 095°06'0 0.0
2017-Oct-19 02:00N 29°45' W 095°06'0 0.0
2017-Oct-19 01:25N 29°45' W 095°06'0 0.0
2017-Oct-19 00:57N 29°45' W 095°06'0 0.0
2017-Oct-19 00:28N 29°45' W 095°06'0 0.0
2017-Oct-18 23:59N 29°45' W 095°06'0 0.0
2017-Oct-18 23:26N 29°45' W 095°06'0 0.0
2017-Oct-18 22:41N 29°45' W 095°06'2 0.5
2017-Oct-18 18:46N 29°46' W 095°05'0 0.0
2017-Oct-18 18:30N 29°46' W 095°05'0 0.0
2017-Oct-18 17:34N 29°46' W 095°05'0 0.0
2017-Oct-18 16:54N 29°46' W 095°05'1 1.2
2017-Oct-18 16:23N 29°46' W 095°05'0 0.1
2017-Oct-18 15:58N 29°46' W 095°05'2 4.0
2017-Oct-18 15:30N 29°44' W 095°06'3 6.6
2017-Oct-18 15:00N 29°45' W 095°10'5 5.3
2017-Oct-18 14:00N 29°43' W 095°16'0 0.6
2017-Oct-18 13:30N 29°44' W 095°16'0 0.0
2017-Oct-18 13:00N 29°44' W 095°16'0 0.0
2017-Oct-18 12:30N 29°44' W 095°16'0 0.0
2017-Oct-18 12:00N 29°44' W 095°16'0 0.0
2017-Oct-18 11:30N 29°44' W 095°16'0 0.0
2017-Oct-18 11:00N 29°44' W 095°16'0 0.0
2017-Oct-18 10:30N 29°44' W 095°16'0 0.0
2017-Oct-18 10:00N 29°44' W 095°16'0 0.0
2017-Oct-18 09:30N 29°44' W 095°16'0 0.0
2017-Oct-18 09:00N 29°44' W 095°16'0 0.0
2017-Oct-18 08:29N 29°44' W 095°16'0 0.0
2017-Oct-18 08:00N 29°44' W 095°16'1 1.5
2017-Oct-18 07:29N 29°44' W 095°15'3 5.8
2017-Oct-18 06:59N 29°44' W 095°12'3 6.4
2017-Oct-18 06:30N 29°44' W 095°09'3 5.2
2017-Oct-18 05:59N 29°45' W 095°06'0 0.9
2017-Oct-18 05:30N 29°46' W 095°06'0 0.0
2017-Oct-18 02:52N 29°46' W 095°06'0 0.0
2017-Oct-18 02:27N 29°46' W 095°06'0 0.0
2017-Oct-18 01:59N 29°46' W 095°06'0 0.1
2017-Oct-17 23:24N 29°46' W 095°06'1 0.1
2017-Oct-17 11:16N 29°47' W 095°06'0 0.1
2017-Oct-17 10:48N 29°47' W 095°06'1 2.4
2017-Oct-17 10:26N 29°46' W 095°05'3 6.4
2017-Oct-17 10:00N 29°44' W 095°03'0 0.0
2017-Oct-16 23:24N 29°44' W 095°03'3 4.0
2017-Oct-16 22:45N 29°45' W 095°06'2 7.5
2017-Oct-16 22:29N 29°44' W 095°08'2 4.5
2017-Oct-16 21:57N 29°45' W 095°11'0 0.0
2017-Oct-16 21:01N 29°45' W 095°11'0 0.0
2017-Oct-16 20:51N 29°45' W 095°11'0 0.0
2017-Oct-16 20:28N 29°45' W 095°11'0 0.0
2017-Oct-16 19:48N 29°45' W 095°11'0 0.0
2017-Oct-16 18:20N 29°45' W 095°11'0 0.0
2017-Oct-16 16:57N 29°45' W 095°11'0 0.0
2017-Oct-16 16:27N 29°45' W 095°11'0 0.7
2017-Oct-16 15:55N 29°45' W 095°10'3 6.8
2017-Oct-16 15:28N 29°44' W 095°07'2 5.5
2017-Oct-16 15:00N 29°45' W 095°04'7 6.7
2017-Oct-16 14:00N 29°41' W 094°59'4 7.1
2017-Oct-16 13:30N 29°37' W 094°57'4 8.0
2017-Oct-16 13:01N 29°34' W 094°55'  
2017-Oct-14 03:15N 29°29' W 094°51'2 7.0
2017-Oct-14 03:00N 29°30' W 094°52'4 7.1
2017-Oct-14 02:30N 29°33' W 094°55'4 7.1
2017-Oct-14 02:00N 29°36' W 094°57'13 0.7
2017-Oct-13 05:51N 29°47' W 095°06'0 0.3
2017-Oct-13 05:25N 29°46' W 095°06'0 0.0
2017-Oct-12 08:48N 29°47' W 095°06'0 0.5
2017-Oct-12 08:25N 29°46' W 095°06'1 3.3
2017-Oct-12 08:00N 29°45' W 095°06'4 6.7
2017-Oct-12 07:27N 29°45' W 095°10'2 3.8
2017-Oct-12 06:54N 29°44' W 095°12'0 0.0
2017-Oct-12 06:24N 29°44' W 095°12'0 0.0
2017-Oct-12 05:51N 29°44' W 095°12'0 0.0
2017-Oct-12 05:18N 29°44' W 095°12'0 0.0
2017-Oct-12 05:00N 29°44' W 095°12'0 0.0
2017-Oct-12 04:24N 29°44' W 095°12'0 0.0
2017-Oct-12 03:51N 29°44' W 095°12'0 0.0
2017-Oct-12 03:30N 29°44' W 095°12'0 0.0
2017-Oct-12 03:00N 29°44' W 095°12'0 0.0
2017-Oct-12 02:18N 29°44' W 095°12'0 0.0
2017-Oct-12 02:00N 29°44' W 095°12'0 0.1
2017-Oct-12 01:03N 29°44' W 095°12'0 0.2
2017-Oct-12 00:52N 29°44' W 095°12'1 3.9
2017-Oct-12 00:30N 29°44' W 095°14'0 0.1
2017-Oct-11 17:09N 29°43' W 095°13'3 5.7
2017-Oct-11 16:39N 29°45' W 095°10'4 0.2
2017-Oct-10 22:35N 29°46' W 095°06'0 3.9
2017-Oct-10 22:30N 29°46' W 095°05'1 2.7
2017-Oct-10 21:58N 29°45' W 095°06'1 0.1
2017-Oct-10 07:06N 29°46' W 095°06'0 4.2
2017-Oct-10 06:59N 29°46' W 095°05'3 5.9
2017-Oct-10 06:30N 29°44' W 095°08'  

Dump ship's entire track history